sensor_id;sensor_type;location;lat;lon;timestamp;P1;durP1;ratioP1;P2;durP2;ratioP2
66727;SDS011;53641;44.274;19.890;2022-07-29T00:00:04;8.82;;;4.43;;
66727;SDS011;53641;44.274;19.890;2022-07-29T00:02:31;7.10;;;4.00;;
66727;SDS011;53641;44.274;19.890;2022-07-29T00:04:57;8.20;;;3.50;;
66727;SDS011;53641;44.274;19.890;2022-07-29T00:07:23;7.45;;;3.83;;
66727;SDS011;53641;44.274;19.890;2022-07-29T00:09:49;6.45;;;3.50;;
66727;SDS011;53641;44.274;19.890;2022-07-29T00:12:14;8.48;;;4.55;;
66727;SDS011;53641;44.274;19.890;2022-07-29T00:14:40;7.65;;;3.75;;
66727;SDS011;53641;44.274;19.890;2022-07-29T00:17:06;7.43;;;3.85;;
66727;SDS011;53641;44.274;19.890;2022-07-29T00:19:32;4.13;;;3.13;;
66727;SDS011;53641;44.274;19.890;2022-07-29T00:21:59;7.93;;;3.60;;
66727;SDS011;53641;44.274;19.890;2022-07-29T00:24:25;5.22;;;3.38;;
66727;SDS011;53641;44.274;19.890;2022-07-29T00:26:50;5.43;;;3.63;;
66727;SDS011;53641;44.274;19.890;2022-07-29T00:29:17;7.65;;;4.10;;
66727;SDS011;53641;44.274;19.890;2022-07-29T00:31:43;10.85;;;3.83;;
66727;SDS011;53641;44.274;19.890;2022-07-29T00:34:08;9.27;;;4.53;;
66727;SDS011;53641;44.274;19.890;2022-07-29T00:36:54;11.48;;;3.97;;
66727;SDS011;53641;44.274;19.890;2022-07-29T00:39:20;7.88;;;4.00;;
66727;SDS011;53641;44.274;19.890;2022-07-29T00:41:46;6.55;;;4.13;;
66727;SDS011;53641;44.274;19.890;2022-07-29T00:44:11;5.65;;;3.55;;
66727;SDS011;53641;44.274;19.890;2022-07-29T00:46:37;7.15;;;3.70;;
66727;SDS011;53641;44.274;19.890;2022-07-29T00:49:03;10.25;;;3.92;;
66727;SDS011;53641;44.274;19.890;2022-07-29T00:51:29;7.70;;;4.18;;
66727;SDS011;53641;44.274;19.890;2022-07-29T00:53:56;7.00;;;3.80;;
66727;SDS011;53641;44.274;19.890;2022-07-29T00:56:22;4.80;;;3.53;;
66727;SDS011;53641;44.274;19.890;2022-07-29T00:58:48;5.97;;;3.83;;
66727;SDS011;53641;44.274;19.890;2022-07-29T01:01:16;4.65;;;3.42;;
66727;SDS011;53641;44.274;19.890;2022-07-29T01:03:42;6.97;;;3.50;;
66727;SDS011;53641;44.274;19.890;2022-07-29T01:06:08;7.43;;;4.40;;
66727;SDS011;53641;44.274;19.890;2022-07-29T01:08:34;6.85;;;4.32;;
66727;SDS011;53641;44.274;19.890;2022-07-29T01:11:01;6.68;;;3.65;;
66727;SDS011;53641;44.274;19.890;2022-07-29T01:13:27;5.15;;;3.25;;
66727;SDS011;53641;44.274;19.890;2022-07-29T01:15:56;6.28;;;3.95;;
66727;SDS011;53641;44.274;19.890;2022-07-29T01:18:32;7.53;;;3.92;;
66727;SDS011;53641;44.274;19.890;2022-07-29T01:21:24;10.60;;;4.20;;
66727;SDS011;53641;44.274;19.890;2022-07-29T01:24:11;9.75;;;4.35;;
66727;SDS011;53641;44.274;19.890;2022-07-29T01:26:58;6.68;;;3.90;;
66727;SDS011;53641;44.274;19.890;2022-07-29T01:29:54;9.70;;;4.25;;
66727;SDS011;53641;44.274;19.890;2022-07-29T01:32:24;8.80;;;4.65;;
66727;SDS011;53641;44.274;19.890;2022-07-29T01:34:54;6.63;;;4.35;;
66727;SDS011;53641;44.274;19.890;2022-07-29T01:37:40;5.93;;;4.40;;
66727;SDS011;53641;44.274;19.890;2022-07-29T01:40:29;7.28;;;4.05;;
66727;SDS011;53641;44.274;19.890;2022-07-29T01:43:03;6.25;;;4.32;;
66727;SDS011;53641;44.274;19.890;2022-07-29T01:45:38;6.60;;;3.83;;
66727;SDS011;53641;44.274;19.890;2022-07-29T01:48:13;6.55;;;3.83;;
66727;SDS011;53641;44.274;19.890;2022-07-29T01:51:11;8.80;;;3.70;;
66727;SDS011;53641;44.274;19.890;2022-07-29T01:53:42;6.18;;;4.15;;
66727;SDS011;53641;44.274;19.890;2022-07-29T01:56:12;10.88;;;4.30;;
66727;SDS011;53641;44.274;19.890;2022-07-29T01:58:41;8.75;;;4.20;;
66727;SDS011;53641;44.274;19.890;2022-07-29T02:01:10;7.53;;;4.20;;
66727;SDS011;53641;44.274;19.890;2022-07-29T02:03:38;5.78;;;3.90;;
66727;SDS011;53641;44.274;19.890;2022-07-29T02:06:06;8.50;;;4.10;;
66727;SDS011;53641;44.274;19.890;2022-07-29T02:08:34;5.18;;;3.85;;
66727;SDS011;53641;44.274;19.890;2022-07-29T02:11:03;6.35;;;4.05;;
66727;SDS011;53641;44.274;19.890;2022-07-29T02:13:30;10.60;;;4.05;;
66727;SDS011;53641;44.274;19.890;2022-07-29T02:15:58;7.78;;;4.07;;
66727;SDS011;53641;44.274;19.890;2022-07-29T02:18:27;10.30;;;4.32;;
66727;SDS011;53641;44.274;19.890;2022-07-29T02:20:55;7.18;;;3.90;;
66727;SDS011;53641;44.274;19.890;2022-07-29T02:23:23;5.70;;;3.92;;
66727;SDS011;53641;44.274;19.890;2022-07-29T02:25:55;6.70;;;4.25;;
66727;SDS011;53641;44.274;19.890;2022-07-29T02:28:22;5.50;;;4.35;;
66727;SDS011;53641;44.274;19.890;2022-07-29T02:30:50;5.90;;;3.92;;
66727;SDS011;53641;44.274;19.890;2022-07-29T02:33:18;5.57;;;3.90;;
66727;SDS011;53641;44.274;19.890;2022-07-29T02:35:45;5.63;;;3.90;;
66727;SDS011;53641;44.274;19.890;2022-07-29T02:38:13;6.07;;;3.83;;
66727;SDS011;53641;44.274;19.890;2022-07-29T02:41:01;7.35;;;4.32;;
66727;SDS011;53641;44.274;19.890;2022-07-29T02:43:31;8.60;;;4.10;;
66727;SDS011;53641;44.274;19.890;2022-07-29T02:45:58;8.80;;;4.32;;
66727;SDS011;53641;44.274;19.890;2022-07-29T02:48:29;5.30;;;3.72;;
66727;SDS011;53641;44.274;19.890;2022-07-29T02:51:04;7.50;;;3.88;;
66727;SDS011;53641;44.274;19.890;2022-07-29T02:53:37;8.90;;;4.28;;
66727;SDS011;53641;44.274;19.890;2022-07-29T02:56:14;6.68;;;4.10;;
66727;SDS011;53641;44.274;19.890;2022-07-29T02:58:42;7.50;;;4.13;;
66727;SDS011;53641;44.274;19.890;2022-07-29T03:01:15;7.63;;;3.78;;
66727;SDS011;53641;44.274;19.890;2022-07-29T03:03:45;6.50;;;4.00;;
66727;SDS011;53641;44.274;19.890;2022-07-29T03:06:13;5.72;;;4.10;;
66727;SDS011;53641;44.274;19.890;2022-07-29T03:08:41;8.18;;;4.32;;
66727;SDS011;53641;44.274;19.890;2022-07-29T03:11:09;9.73;;;4.07;;
66727;SDS011;53641;44.274;19.890;2022-07-29T03:13:36;9.32;;;4.70;;
66727;SDS011;53641;44.274;19.890;2022-07-29T03:16:02;7.90;;;4.43;;
66727;SDS011;53641;44.274;19.890;2022-07-29T03:18:29;5.03;;;3.45;;
66727;SDS011;53641;44.274;19.890;2022-07-29T03:20:56;7.53;;;4.55;;
66727;SDS011;53641;44.274;19.890;2022-07-29T03:23:22;8.23;;;4.68;;
66727;SDS011;53641;44.274;19.890;2022-07-29T03:25:52;7.65;;;4.35;;
66727;SDS011;53641;44.274;19.890;2022-07-29T03:28:18;8.77;;;4.78;;
66727;SDS011;53641;44.274;19.890;2022-07-29T03:30:47;9.95;;;6.03;;
66727;SDS011;53641;44.274;19.890;2022-07-29T03:33:13;12.02;;;5.88;;
66727;SDS011;53641;44.274;19.890;2022-07-29T03:35:39;11.63;;;6.50;;
66727;SDS011;53641;44.274;19.890;2022-07-29T03:38:05;9.57;;;6.18;;
66727;SDS011;53641;44.274;19.890;2022-07-29T03:40:32;11.80;;;6.28;;
66727;SDS011;53641;44.274;19.890;2022-07-29T03:43:02;10.98;;;6.85;;
66727;SDS011;53641;44.274;19.890;2022-07-29T03:45:30;15.77;;;7.78;;
66727;SDS011;53641;44.274;19.890;2022-07-29T03:48:03;13.05;;;7.32;;
66727;SDS011;53641;44.274;19.890;2022-07-29T03:50:33;11.73;;;7.65;;
66727;SDS011;53641;44.274;19.890;2022-07-29T03:53:00;14.00;;;7.72;;
66727;SDS011;53641;44.274;19.890;2022-07-29T03:55:26;8.48;;;5.80;;
66727;SDS011;53641;44.274;19.890;2022-07-29T03:57:56;7.50;;;4.40;;
66727;SDS011;53641;44.274;19.890;2022-07-29T04:00:23;7.43;;;4.55;;
66727;SDS011;53641;44.274;19.890;2022-07-29T04:02:50;6.18;;;4.13;;
66727;SDS011;53641;44.274;19.890;2022-07-29T04:05:16;6.88;;;4.10;;
66727;SDS011;53641;44.274;19.890;2022-07-29T04:07:44;7.65;;;3.75;;
66727;SDS011;53641;44.274;19.890;2022-07-29T04:10:10;7.82;;;4.50;;
66727;SDS011;53641;44.274;19.890;2022-07-29T04:12:36;9.05;;;4.43;;
66727;SDS011;53641;44.274;19.890;2022-07-29T04:15:05;6.47;;;3.83;;
66727;SDS011;53641;44.274;19.890;2022-07-29T04:17:31;6.35;;;3.95;;
66727;SDS011;53641;44.274;19.890;2022-07-29T04:19:57;9.98;;;3.80;;
66727;SDS011;53641;44.274;19.890;2022-07-29T04:22:22;6.50;;;4.30;;
66727;SDS011;53641;44.274;19.890;2022-07-29T04:24:48;8.30;;;4.45;;
66727;SDS011;53641;44.274;19.890;2022-07-29T04:27:14;11.02;;;4.55;;
66727;SDS011;53641;44.274;19.890;2022-07-29T04:29:40;7.82;;;4.82;;
66727;SDS011;53641;44.274;19.890;2022-07-29T04:32:05;6.35;;;3.88;;
66727;SDS011;53641;44.274;19.890;2022-07-29T04:34:31;8.32;;;4.53;;
66727;SDS011;53641;44.274;19.890;2022-07-29T04:36:57;7.53;;;4.80;;
66727;SDS011;53641;44.274;19.890;2022-07-29T04:39:23;7.75;;;4.32;;
66727;SDS011;53641;44.274;19.890;2022-07-29T04:41:49;5.65;;;3.88;;
66727;SDS011;53641;44.274;19.890;2022-07-29T04:44:15;10.60;;;5.28;;
66727;SDS011;53641;44.274;19.890;2022-07-29T04:46:41;8.15;;;4.60;;
66727;SDS011;53641;44.274;19.890;2022-07-29T04:49:07;9.65;;;4.38;;
66727;SDS011;53641;44.274;19.890;2022-07-29T04:51:33;7.53;;;4.32;;
66727;SDS011;53641;44.274;19.890;2022-07-29T04:53:59;14.18;;;4.63;;
66727;SDS011;53641;44.274;19.890;2022-07-29T04:56:25;9.68;;;4.90;;
66727;SDS011;53641;44.274;19.890;2022-07-29T04:58:50;8.20;;;4.65;;
66727;SDS011;53641;44.274;19.890;2022-07-29T05:01:16;15.23;;;4.40;;
66727;SDS011;53641;44.274;19.890;2022-07-29T05:03:42;10.27;;;5.00;;
66727;SDS011;53641;44.274;19.890;2022-07-29T05:06:08;6.90;;;4.35;;
66727;SDS011;53641;44.274;19.890;2022-07-29T05:08:34;10.05;;;5.00;;
66727;SDS011;53641;44.274;19.890;2022-07-29T05:11:00;12.93;;;5.13;;
66727;SDS011;53641;44.274;19.890;2022-07-29T05:13:26;10.05;;;4.75;;
66727;SDS011;53641;44.274;19.890;2022-07-29T05:15:51;7.93;;;4.82;;
66727;SDS011;53641;44.274;19.890;2022-07-29T05:18:17;9.43;;;5.30;;
66727;SDS011;53641;44.274;19.890;2022-07-29T05:20:43;8.23;;;5.15;;
66727;SDS011;53641;44.274;19.890;2022-07-29T05:23:09;13.73;;;4.80;;
66727;SDS011;53641;44.274;19.890;2022-07-29T05:25:37;11.50;;;5.53;;
66727;SDS011;53641;44.274;19.890;2022-07-29T05:28:04;14.98;;;5.45;;
66727;SDS011;53641;44.274;19.890;2022-07-29T05:30:29;8.25;;;5.20;;
66727;SDS011;53641;44.274;19.890;2022-07-29T05:32:55;12.02;;;4.30;;
66727;SDS011;53641;44.274;19.890;2022-07-29T05:35:21;8.93;;;4.63;;
66727;SDS011;53641;44.274;19.890;2022-07-29T05:37:47;10.00;;;5.13;;
66727;SDS011;53641;44.274;19.890;2022-07-29T05:40:13;10.60;;;4.18;;
66727;SDS011;53641;44.274;19.890;2022-07-29T05:42:40;8.70;;;5.15;;
66727;SDS011;53641;44.274;19.890;2022-07-29T05:45:06;9.02;;;4.82;;
66727;SDS011;53641;44.274;19.890;2022-07-29T05:47:32;9.68;;;4.72;;
66727;SDS011;53641;44.274;19.890;2022-07-29T05:49:57;12.50;;;5.05;;
66727;SDS011;53641;44.274;19.890;2022-07-29T05:52:23;9.75;;;4.65;;
66727;SDS011;53641;44.274;19.890;2022-07-29T05:54:49;10.63;;;4.50;;
66727;SDS011;53641;44.274;19.890;2022-07-29T05:57:19;12.95;;;4.50;;
66727;SDS011;53641;44.274;19.890;2022-07-29T05:59:48;10.63;;;4.30;;
66727;SDS011;53641;44.274;19.890;2022-07-29T06:02:14;7.90;;;4.05;;
66727;SDS011;53641;44.274;19.890;2022-07-29T06:04:41;7.50;;;4.30;;
66727;SDS011;53641;44.274;19.890;2022-07-29T06:07:07;7.68;;;3.90;;
66727;SDS011;53641;44.274;19.890;2022-07-29T06:09:33;13.35;;;3.60;;
66727;SDS011;53641;44.274;19.890;2022-07-29T06:11:59;10.40;;;4.10;;
66727;SDS011;53641;44.274;19.890;2022-07-29T06:14:25;7.72;;;3.75;;
66727;SDS011;53641;44.274;19.890;2022-07-29T06:16:54;7.97;;;3.78;;
66727;SDS011;53641;44.274;19.890;2022-07-29T06:19:20;11.07;;;3.90;;
66727;SDS011;53641;44.274;19.890;2022-07-29T06:21:46;11.40;;;3.70;;
66727;SDS011;53641;44.274;19.890;2022-07-29T06:24:13;13.63;;;4.00;;
66727;SDS011;53641;44.274;19.890;2022-07-29T06:26:39;5.07;;;3.40;;
66727;SDS011;53641;44.274;19.890;2022-07-29T06:29:06;12.05;;;4.43;;
66727;SDS011;53641;44.274;19.890;2022-07-29T06:31:32;11.80;;;4.30;;
66727;SDS011;53641;44.274;19.890;2022-07-29T06:33:59;10.93;;;3.90;;
66727;SDS011;53641;44.274;19.890;2022-07-29T06:36:25;15.88;;;4.68;;
66727;SDS011;53641;44.274;19.890;2022-07-29T06:38:50;6.07;;;3.83;;
66727;SDS011;53641;44.274;19.890;2022-07-29T06:41:16;11.32;;;3.88;;
66727;SDS011;53641;44.274;19.890;2022-07-29T06:43:43;8.05;;;4.20;;
66727;SDS011;53641;44.274;19.890;2022-07-29T06:46:10;7.57;;;3.80;;
66727;SDS011;53641;44.274;19.890;2022-07-29T06:48:37;10.90;;;4.13;;
66727;SDS011;53641;44.274;19.890;2022-07-29T06:51:05;11.45;;;4.25;;
66727;SDS011;53641;44.274;19.890;2022-07-29T06:53:31;7.78;;;4.10;;
66727;SDS011;53641;44.274;19.890;2022-07-29T06:55:59;5.13;;;3.50;;
66727;SDS011;53641;44.274;19.890;2022-07-29T06:58:25;7.20;;;3.92;;
66727;SDS011;53641;44.274;19.890;2022-07-29T07:00:51;10.90;;;4.03;;
66727;SDS011;53641;44.274;19.890;2022-07-29T07:03:17;10.40;;;4.00;;
66727;SDS011;53641;44.274;19.890;2022-07-29T07:05:44;5.60;;;3.47;;
66727;SDS011;53641;44.274;19.890;2022-07-29T07:08:11;4.30;;;3.30;;
66727;SDS011;53641;44.274;19.890;2022-07-29T07:10:37;10.65;;;3.50;;
66727;SDS011;53641;44.274;19.890;2022-07-29T07:13:03;8.75;;;4.15;;
66727;SDS011;53641;44.274;19.890;2022-07-29T07:15:30;7.43;;;3.50;;
66727;SDS011;53641;44.274;19.890;2022-07-29T07:17:58;6.93;;;3.75;;
66727;SDS011;53641;44.274;19.890;2022-07-29T07:20:24;7.38;;;3.72;;
66727;SDS011;53641;44.274;19.890;2022-07-29T07:22:50;5.30;;;3.50;;
66727;SDS011;53641;44.274;19.890;2022-07-29T07:25:16;6.05;;;3.70;;
66727;SDS011;53641;44.274;19.890;2022-07-29T07:27:43;4.70;;;3.83;;
66727;SDS011;53641;44.274;19.890;2022-07-29T07:30:09;6.95;;;3.58;;
66727;SDS011;53641;44.274;19.890;2022-07-29T07:32:36;9.50;;;3.80;;
66727;SDS011;53641;44.274;19.890;2022-07-29T07:35:03;5.57;;;3.92;;
66727;SDS011;53641;44.274;19.890;2022-07-29T07:37:29;7.55;;;4.15;;
66727;SDS011;53641;44.274;19.890;2022-07-29T07:39:55;6.18;;;4.00;;
66727;SDS011;53641;44.274;19.890;2022-07-29T07:42:21;8.93;;;3.80;;
66727;SDS011;53641;44.274;19.890;2022-07-29T07:44:47;8.70;;;3.83;;
66727;SDS011;53641;44.274;19.890;2022-07-29T07:47:13;10.63;;;4.13;;
66727;SDS011;53641;44.274;19.890;2022-07-29T07:49:39;10.00;;;4.32;;
66727;SDS011;53641;44.274;19.890;2022-07-29T07:52:05;13.63;;;3.60;;
66727;SDS011;53641;44.274;19.890;2022-07-29T07:54:31;9.38;;;3.88;;
66727;SDS011;53641;44.274;19.890;2022-07-29T07:56:57;7.43;;;3.72;;
66727;SDS011;53641;44.274;19.890;2022-07-29T07:59:23;6.32;;;4.00;;
66727;SDS011;53641;44.274;19.890;2022-07-29T08:01:49;5.50;;;3.90;;
66727;SDS011;53641;44.274;19.890;2022-07-29T08:04:15;5.72;;;4.03;;
66727;SDS011;53641;44.274;19.890;2022-07-29T08:06:41;9.27;;;3.75;;
66727;SDS011;53641;44.274;19.890;2022-07-29T08:09:07;5.93;;;3.72;;
66727;SDS011;53641;44.274;19.890;2022-07-29T08:11:33;7.88;;;4.00;;
66727;SDS011;53641;44.274;19.890;2022-07-29T08:13:58;5.68;;;4.40;;
66727;SDS011;53641;44.274;19.890;2022-07-29T08:16:26;9.25;;;3.92;;
66727;SDS011;53641;44.274;19.890;2022-07-29T08:18:52;13.25;;;4.50;;
66727;SDS011;53641;44.274;19.890;2022-07-29T08:21:22;5.88;;;4.30;;
66727;SDS011;53641;44.274;19.890;2022-07-29T08:23:49;9.45;;;4.20;;
66727;SDS011;53641;44.274;19.890;2022-07-29T08:26:17;6.20;;;4.10;;
66727;SDS011;53641;44.274;19.890;2022-07-29T08:28:45;4.50;;;3.72;;
66727;SDS011;53641;44.274;19.890;2022-07-29T08:31:14;5.18;;;3.88;;
66727;SDS011;53641;44.274;19.890;2022-07-29T08:33:40;4.85;;;3.47;;
66727;SDS011;53641;44.274;19.890;2022-07-29T08:36:06;5.28;;;4.00;;
66727;SDS011;53641;44.274;19.890;2022-07-29T08:38:32;8.05;;;3.83;;
66727;SDS011;53641;44.274;19.890;2022-07-29T08:41:00;5.68;;;3.50;;
66727;SDS011;53641;44.274;19.890;2022-07-29T08:43:27;9.05;;;3.70;;
66727;SDS011;53641;44.274;19.890;2022-07-29T08:45:53;8.27;;;3.90;;
66727;SDS011;53641;44.274;19.890;2022-07-29T08:48:20;6.63;;;4.13;;
66727;SDS011;53641;44.274;19.890;2022-07-29T08:50:48;8.18;;;4.15;;
66727;SDS011;53641;44.274;19.890;2022-07-29T08:53:17;8.75;;;4.35;;
66727;SDS011;53641;44.274;19.890;2022-07-29T08:55:44;7.50;;;3.70;;
66727;SDS011;53641;44.274;19.890;2022-07-29T08:58:12;7.38;;;5.80;;
66727;SDS011;53641;44.274;19.890;2022-07-29T09:00:41;4.93;;;3.78;;
66727;SDS011;53641;44.274;19.890;2022-07-29T09:03:08;4.28;;;3.88;;
66727;SDS011;53641;44.274;19.890;2022-07-29T09:05:37;7.38;;;4.20;;
66727;SDS011;53641;44.274;19.890;2022-07-29T09:08:06;7.40;;;3.90;;
66727;SDS011;53641;44.274;19.890;2022-07-29T09:10:34;15.35;;;4.03;;
66727;SDS011;53641;44.274;19.890;2022-07-29T09:13:00;4.55;;;3.72;;
66727;SDS011;53641;44.274;19.890;2022-07-29T09:15:26;4.32;;;3.72;;
66727;SDS011;53641;44.274;19.890;2022-07-29T09:17:52;6.50;;;4.03;;
66727;SDS011;53641;44.274;19.890;2022-07-29T09:20:19;5.18;;;3.45;;
66727;SDS011;53641;44.274;19.890;2022-07-29T09:22:47;8.50;;;3.90;;
66727;SDS011;53641;44.274;19.890;2022-07-29T09:25:14;6.88;;;3.80;;
66727;SDS011;53641;44.274;19.890;2022-07-29T09:28:04;6.93;;;3.88;;
66727;SDS011;53641;44.274;19.890;2022-07-29T09:30:30;6.03;;;4.35;;
66727;SDS011;53641;44.274;19.890;2022-07-29T09:32:57;5.95;;;3.78;;
66727;SDS011;53641;44.274;19.890;2022-07-29T09:35:26;8.95;;;3.70;;
66727;SDS011;53641;44.274;19.890;2022-07-29T09:37:53;12.32;;;4.13;;
66727;SDS011;53641;44.274;19.890;2022-07-29T09:40:20;6.40;;;3.35;;
66727;SDS011;53641;44.274;19.890;2022-07-29T09:42:47;4.57;;;3.22;;
66727;SDS011;53641;44.274;19.890;2022-07-29T09:45:27;4.70;;;3.45;;
66727;SDS011;53641;44.274;19.890;2022-07-29T09:47:54;6.78;;;3.75;;
66727;SDS011;53641;44.274;19.890;2022-07-29T09:50:22;5.53;;;3.20;;
66727;SDS011;53641;44.274;19.890;2022-07-29T09:52:59;4.40;;;3.60;;
66727;SDS011;53641;44.274;19.890;2022-07-29T09:55:25;4.53;;;3.58;;
66727;SDS011;53641;44.274;19.890;2022-07-29T09:57:50;5.22;;;3.58;;
66727;SDS011;53641;44.274;19.890;2022-07-29T10:00:17;4.47;;;3.58;;
66727;SDS011;53641;44.274;19.890;2022-07-29T10:02:45;9.10;;;4.25;;
66727;SDS011;53641;44.274;19.890;2022-07-29T10:05:22;7.32;;;3.90;;
66727;SDS011;53641;44.274;19.890;2022-07-29T10:07:50;5.57;;;3.80;;
66727;SDS011;53641;44.274;19.890;2022-07-29T10:10:24;4.45;;;4.00;;
66727;SDS011;53641;44.274;19.890;2022-07-29T10:12:59;6.05;;;4.25;;
66727;SDS011;53641;44.274;19.890;2022-07-29T10:15:27;4.53;;;3.58;;
66727;SDS011;53641;44.274;19.890;2022-07-29T10:17:55;5.60;;;3.67;;
66727;SDS011;53641;44.274;19.890;2022-07-29T10:20:22;6.13;;;3.42;;
66727;SDS011;53641;44.274;19.890;2022-07-29T10:22:50;7.55;;;3.88;;
66727;SDS011;53641;44.274;19.890;2022-07-29T10:25:16;5.57;;;3.63;;
66727;SDS011;53641;44.274;19.890;2022-07-29T10:27:43;4.88;;;3.55;;
66727;SDS011;53641;44.274;19.890;2022-07-29T10:30:11;4.25;;;3.60;;
66727;SDS011;53641;44.274;19.890;2022-07-29T10:32:48;5.80;;;3.75;;
66727;SDS011;53641;44.274;19.890;2022-07-29T10:39:52;6.78;;;3.70;;
66727;SDS011;53641;44.274;19.890;2022-07-29T10:41:36;5.78;;;3.65;;
66727;SDS011;53641;44.274;19.890;2022-07-29T10:44:23;4.07;;;3.65;;
66727;SDS011;53641;44.274;19.890;2022-07-29T10:46:51;6.22;;;3.55;;
66727;SDS011;53641;44.274;19.890;2022-07-29T10:49:22;8.38;;;4.05;;
66727;SDS011;53641;44.274;19.890;2022-07-29T10:52:05;4.63;;;3.90;;
66727;SDS011;53641;44.274;19.890;2022-07-29T10:54:39;5.35;;;3.75;;
66727;SDS011;53641;44.274;19.890;2022-07-29T10:57:14;5.05;;;4.07;;
66727;SDS011;53641;44.274;19.890;2022-07-29T10:59:51;7.45;;;3.65;;
66727;SDS011;53641;44.274;19.890;2022-07-29T11:02:53;7.07;;;4.20;;
66727;SDS011;53641;44.274;19.890;2022-07-29T11:05:21;5.30;;;3.60;;
66727;SDS011;53641;44.274;19.890;2022-07-29T11:08:19;6.45;;;4.00;;
66727;SDS011;53641;44.274;19.890;2022-07-29T11:10:44;6.78;;;3.92;;
66727;SDS011;53641;44.274;19.890;2022-07-29T11:13:09;7.50;;;5.38;;
66727;SDS011;53641;44.274;19.890;2022-07-29T11:15:57;5.97;;;4.20;;
66727;SDS011;53641;44.274;19.890;2022-07-29T11:18:23;7.22;;;4.10;;
66727;SDS011;53641;44.274;19.890;2022-07-29T11:20:51;5.18;;;3.90;;
66727;SDS011;53641;44.274;19.890;2022-07-29T11:23:25;5.80;;;4.25;;
66727;SDS011;53641;44.274;19.890;2022-07-29T11:26:26;5.63;;;4.30;;
66727;SDS011;53641;44.274;19.890;2022-07-29T11:28:58;4.95;;;3.90;;
66727;SDS011;53641;44.274;19.890;2022-07-29T11:31:33;7.13;;;3.97;;
66727;SDS011;53641;44.274;19.890;2022-07-29T11:34:19;8.75;;;4.57;;
66727;SDS011;53641;44.274;19.890;2022-07-29T11:37:16;6.57;;;4.32;;
66727;SDS011;53641;44.274;19.890;2022-07-29T11:39:43;7.20;;;4.50;;
66727;SDS011;53641;44.274;19.890;2022-07-29T11:45:12;5.95;;;4.25;;
66727;SDS011;53641;44.274;19.890;2022-07-29T11:47:40;6.70;;;4.03;;
66727;SDS011;53641;44.274;19.890;2022-07-29T11:50:10;7.55;;;3.92;;
66727;SDS011;53641;44.274;19.890;2022-07-29T11:52:38;6.80;;;3.75;;
66727;SDS011;53641;44.274;19.890;2022-07-29T11:55:08;6.63;;;4.28;;
66727;SDS011;53641;44.274;19.890;2022-07-29T11:57:37;5.00;;;4.35;;
66727;SDS011;53641;44.274;19.890;2022-07-29T12:00:11;8.52;;;4.40;;
66727;SDS011;53641;44.274;19.890;2022-07-29T12:02:45;6.03;;;4.30;;
66727;SDS011;53641;44.274;19.890;2022-07-29T12:05:11;8.40;;;4.63;;
66727;SDS011;53641;44.274;19.890;2022-07-29T12:07:37;5.20;;;4.10;;
66727;SDS011;53641;44.274;19.890;2022-07-29T12:10:04;5.85;;;3.83;;
66727;SDS011;53641;44.274;19.890;2022-07-29T12:12:31;5.85;;;4.20;;
66727;SDS011;53641;44.274;19.890;2022-07-29T12:14:57;5.25;;;3.90;;
66727;SDS011;53641;44.274;19.890;2022-07-29T12:17:33;5.90;;;4.13;;
66727;SDS011;53641;44.274;19.890;2022-07-29T12:20:03;8.77;;;4.30;;
66727;SDS011;53641;44.274;19.890;2022-07-29T12:22:30;8.27;;;4.55;;
66727;SDS011;53641;44.274;19.890;2022-07-29T12:25:03;6.22;;;4.28;;
66727;SDS011;53641;44.274;19.890;2022-07-29T12:27:30;8.35;;;4.00;;
66727;SDS011;53641;44.274;19.890;2022-07-29T12:29:56;5.38;;;4.40;;
66727;SDS011;53641;44.274;19.890;2022-07-29T12:32:23;6.22;;;4.30;;
66727;SDS011;53641;44.274;19.890;2022-07-29T12:34:49;9.77;;;4.38;;
66727;SDS011;53641;44.274;19.890;2022-07-29T12:37:15;6.00;;;4.47;;
66727;SDS011;53641;44.274;19.890;2022-07-29T12:39:41;9.10;;;4.18;;
66727;SDS011;53641;44.274;19.890;2022-07-29T12:42:12;6.68;;;4.50;;
66727;SDS011;53641;44.274;19.890;2022-07-29T12:44:45;5.72;;;4.57;;
66727;SDS011;53641;44.274;19.890;2022-07-29T12:47:11;6.10;;;4.22;;
66727;SDS011;53641;44.274;19.890;2022-07-29T12:49:37;7.80;;;3.97;;
66727;SDS011;53641;44.274;19.890;2022-07-29T12:52:22;16.75;;;4.20;;
66727;SDS011;53641;44.274;19.890;2022-07-29T12:54:49;8.60;;;4.50;;
66727;SDS011;53641;44.274;19.890;2022-07-29T12:57:15;7.18;;;4.18;;
66727;SDS011;53641;44.274;19.890;2022-07-29T12:59:41;8.63;;;4.82;;
66727;SDS011;53641;44.274;19.890;2022-07-29T13:02:19;7.35;;;4.95;;
66727;SDS011;53641;44.274;19.890;2022-07-29T13:04:54;5.00;;;4.50;;
66727;SDS011;53641;44.274;19.890;2022-07-29T13:07:25;5.30;;;4.05;;
66727;SDS011;53641;44.274;19.890;2022-07-29T13:09:54;5.95;;;4.65;;
66727;SDS011;53641;44.274;19.890;2022-07-29T13:12:34;6.15;;;4.57;;
66727;SDS011;53641;44.274;19.890;2022-07-29T13:15:00;6.57;;;4.40;;
66727;SDS011;53641;44.274;19.890;2022-07-29T13:17:26;5.35;;;4.55;;
66727;SDS011;53641;44.274;19.890;2022-07-29T13:20:05;7.78;;;4.63;;
66727;SDS011;53641;44.274;19.890;2022-07-29T13:22:34;7.68;;;4.20;;
66727;SDS011;53641;44.274;19.890;2022-07-29T13:25:01;5.40;;;4.28;;
66727;SDS011;53641;44.274;19.890;2022-07-29T13:27:28;5.38;;;4.35;;
66727;SDS011;53641;44.274;19.890;2022-07-29T13:29:56;7.70;;;4.70;;
66727;SDS011;53641;44.274;19.890;2022-07-29T13:32:23;6.03;;;4.85;;
66727;SDS011;53641;44.274;19.890;2022-07-29T13:34:50;9.70;;;4.50;;
66727;SDS011;53641;44.274;19.890;2022-07-29T13:37:16;8.52;;;4.53;;
66727;SDS011;53641;44.274;19.890;2022-07-29T13:39:44;7.25;;;4.80;;
66727;SDS011;53641;44.274;19.890;2022-07-29T13:42:10;8.88;;;4.95;;
66727;SDS011;53641;44.274;19.890;2022-07-29T13:44:38;7.13;;;4.90;;
66727;SDS011;53641;44.274;19.890;2022-07-29T13:47:05;5.40;;;4.43;;
66727;SDS011;53641;44.274;19.890;2022-07-29T13:49:31;6.68;;;4.35;;
66727;SDS011;53641;44.274;19.890;2022-07-29T13:51:57;7.93;;;4.45;;
66727;SDS011;53641;44.274;19.890;2022-07-29T13:54:22;8.43;;;4.40;;
66727;SDS011;53641;44.274;19.890;2022-07-29T13:56:49;5.43;;;4.50;;
66727;SDS011;53641;44.274;19.890;2022-07-29T13:59:15;8.13;;;4.60;;
66727;SDS011;53641;44.274;19.890;2022-07-29T14:01:41;10.43;;;4.60;;
66727;SDS011;53641;44.274;19.890;2022-07-29T14:04:07;5.97;;;4.63;;
66727;SDS011;53641;44.274;19.890;2022-07-29T14:06:34;5.18;;;4.25;;
66727;SDS011;53641;44.274;19.890;2022-07-29T14:09:00;5.18;;;4.03;;
66727;SDS011;53641;44.274;19.890;2022-07-29T14:11:26;5.32;;;4.38;;
66727;SDS011;53641;44.274;19.890;2022-07-29T14:13:51;7.85;;;4.30;;
66727;SDS011;53641;44.274;19.890;2022-07-29T14:16:17;6.50;;;5.10;;
66727;SDS011;53641;44.274;19.890;2022-07-29T14:18:43;5.75;;;4.72;;
66727;SDS011;53641;44.274;19.890;2022-07-29T14:21:09;6.43;;;4.63;;
66727;SDS011;53641;44.274;19.890;2022-07-29T14:23:35;7.35;;;4.10;;
66727;SDS011;53641;44.274;19.890;2022-07-29T14:26:01;5.80;;;4.53;;
66727;SDS011;53641;44.274;19.890;2022-07-29T14:28:27;5.53;;;4.45;;
66727;SDS011;53641;44.274;19.890;2022-07-29T14:30:53;6.95;;;4.40;;
66727;SDS011;53641;44.274;19.890;2022-07-29T14:33:19;8.57;;;4.10;;
66727;SDS011;53641;44.274;19.890;2022-07-29T14:35:44;8.32;;;4.68;;
66727;SDS011;53641;44.274;19.890;2022-07-29T14:38:10;6.82;;;4.30;;
66727;SDS011;53641;44.274;19.890;2022-07-29T14:40:36;6.93;;;4.10;;
66727;SDS011;53641;44.274;19.890;2022-07-29T14:43:03;5.50;;;4.38;;
66727;SDS011;53641;44.274;19.890;2022-07-29T14:45:29;6.57;;;4.80;;
66727;SDS011;53641;44.274;19.890;2022-07-29T14:47:55;5.53;;;4.15;;